sensor_id;sensor_type;location;lat;lon;timestamp;P1;durP1;ratioP1;P2;durP2;ratioP2
14187;SDS011;7175;51.978;5.330;2024-01-30T00:00:16;104.80;;;97.80;;
14187;SDS011;7175;51.978;5.330;2024-01-30T00:02:46;99.53;;;92.83;;
14187;SDS011;7175;51.978;5.330;2024-01-30T00:05:14;100.27;;;93.57;;
14187;SDS011;7175;51.978;5.330;2024-01-30T00:07:42;100.27;;;93.50;;
14187;SDS011;7175;51.978;5.330;2024-01-30T00:10:11;100.47;;;93.77;;
14187;SDS011;7175;51.978;5.330;2024-01-30T00:12:39;103.83;;;97.00;;
14187;SDS011;7175;51.978;5.330;2024-01-30T00:15:07;99.23;;;92.63;;
14187;SDS011;7175;51.978;5.330;2024-01-30T00:17:36;104.60;;;97.70;;
14187;SDS011;7175;51.978;5.330;2024-01-30T00:20:06;102.20;;;95.40;;
14187;SDS011;7175;51.978;5.330;2024-01-30T00:22:36;103.33;;;96.43;;
14187;SDS011;7175;51.978;5.330;2024-01-30T00:25:04;106.00;;;99.00;;
14187;SDS011;7175;51.978;5.330;2024-01-30T00:27:32;102.87;;;96.07;;
14187;SDS011;7175;51.978;5.330;2024-01-30T00:30:00;103.70;;;96.90;;
14187;SDS011;7175;51.978;5.330;2024-01-30T00:32:28;105.07;;;98.07;;
14187;SDS011;7175;51.978;5.330;2024-01-30T00:34:56;105.87;;;98.80;;
14187;SDS011;7175;51.978;5.330;2024-01-30T00:37:25;108.40;;;101.17;;
14187;SDS011;7175;51.978;5.330;2024-01-30T00:39:53;104.60;;;97.50;;
14187;SDS011;7175;51.978;5.330;2024-01-30T00:42:21;105.33;;;98.27;;
14187;SDS011;7175;51.978;5.330;2024-01-30T00:44:50;105.77;;;98.77;;
14187;SDS011;7175;51.978;5.330;2024-01-30T00:47:18;103.70;;;96.80;;
14187;SDS011;7175;51.978;5.330;2024-01-30T00:49:46;107.53;;;100.43;;
14187;SDS011;7175;51.978;5.330;2024-01-30T00:52:14;105.73;;;98.83;;
14187;SDS011;7175;51.978;5.330;2024-01-30T00:54:43;105.10;;;98.20;;
14187;SDS011;7175;51.978;5.330;2024-01-30T00:57:11;106.77;;;99.77;;
14187;SDS011;7175;51.978;5.330;2024-01-30T00:59:39;105.60;;;98.57;;
14187;SDS011;7175;51.978;5.330;2024-01-30T01:02:07;104.03;;;97.10;;
14187;SDS011;7175;51.978;5.330;2024-01-30T01:04:35;103.50;;;96.40;;
14187;SDS011;7175;51.978;5.330;2024-01-30T01:07:03;103.13;;;96.07;;
14187;SDS011;7175;51.978;5.330;2024-01-30T01:09:31;103.07;;;96.00;;
14187;SDS011;7175;51.978;5.330;2024-01-30T01:12:01;106.50;;;99.30;;
14187;SDS011;7175;51.978;5.330;2024-01-30T01:14:29;107.20;;;100.00;;
14187;SDS011;7175;51.978;5.330;2024-01-30T01:16:57;105.87;;;98.87;;
14187;SDS011;7175;51.978;5.330;2024-01-30T01:19:25;102.50;;;95.57;;
14187;SDS011;7175;51.978;5.330;2024-01-30T01:21:53;101.20;;;94.40;;
14187;SDS011;7175;51.978;5.330;2024-01-30T01:24:21;104.13;;;97.13;;
14187;SDS011;7175;51.978;5.330;2024-01-30T01:26:49;101.10;;;94.30;;
14187;SDS011;7175;51.978;5.330;2024-01-30T01:29:18;103.53;;;96.50;;
14187;SDS011;7175;51.978;5.330;2024-01-30T01:31:47;104.37;;;97.37;;
14187;SDS011;7175;51.978;5.330;2024-01-30T01:34:15;101.13;;;94.33;;
14187;SDS011;7175;51.978;5.330;2024-01-30T01:36:43;100.80;;;94.00;;
14187;SDS011;7175;51.978;5.330;2024-01-30T01:39:11;101.37;;;94.67;;
14187;SDS011;7175;51.978;5.330;2024-01-30T01:41:39;99.63;;;92.97;;
14187;SDS011;7175;51.978;5.330;2024-01-30T01:44:06;101.80;;;95.10;;
14187;SDS011;7175;51.978;5.330;2024-01-30T01:46:36;103.00;;;96.20;;
14187;SDS011;7175;51.978;5.330;2024-01-30T01:49:04;100.30;;;93.60;;
14187;SDS011;7175;51.978;5.330;2024-01-30T01:51:33;102.10;;;95.30;;
14187;SDS011;7175;51.978;5.330;2024-01-30T01:54:03;104.33;;;97.43;;
14187;SDS011;7175;51.978;5.330;2024-01-30T01:56:32;98.13;;;91.63;;
14187;SDS011;7175;51.978;5.330;2024-01-30T01:59:04;99.87;;;93.17;;
14187;SDS011;7175;51.978;5.330;2024-01-30T02:01:35;102.40;;;95.70;;
14187;SDS011;7175;51.978;5.330;2024-01-30T02:04:04;101.17;;;94.47;;
14187;SDS011;7175;51.978;5.330;2024-01-30T02:06:32;97.37;;;90.80;;
14187;SDS011;7175;51.978;5.330;2024-01-30T02:09:01;99.47;;;92.87;;
14187;SDS011;7175;51.978;5.330;2024-01-30T02:11:31;96.17;;;89.67;;
14187;SDS011;7175;51.978;5.330;2024-01-30T02:14:02;94.20;;;87.80;;
14187;SDS011;7175;51.978;5.330;2024-01-30T02:16:30;95.83;;;89.40;;
14187;SDS011;7175;51.978;5.330;2024-01-30T02:18:59;95.00;;;88.67;;
14187;SDS011;7175;51.978;5.330;2024-01-30T02:21:29;90.90;;;84.80;;
14187;SDS011;7175;51.978;5.330;2024-01-30T02:23:57;91.00;;;84.90;;
14187;SDS011;7175;51.978;5.330;2024-01-30T02:26:27;85.63;;;79.73;;
14187;SDS011;7175;51.978;5.330;2024-01-30T02:28:55;90.50;;;84.40;;
14187;SDS011;7175;51.978;5.330;2024-01-30T02:31:24;93.77;;;87.50;;
14187;SDS011;7175;51.978;5.330;2024-01-30T02:33:52;91.03;;;84.93;;
14187;SDS011;7175;51.978;5.330;2024-01-30T02:36:20;90.80;;;84.60;;
14187;SDS011;7175;51.978;5.330;2024-01-30T02:38:49;88.93;;;82.93;;
14187;SDS011;7175;51.978;5.330;2024-01-30T02:41:17;87.70;;;81.80;;
14187;SDS011;7175;51.978;5.330;2024-01-30T02:43:45;89.13;;;83.17;;
14187;SDS011;7175;51.978;5.330;2024-01-30T02:46:13;88.43;;;82.43;;
14187;SDS011;7175;51.978;5.330;2024-01-30T02:48:41;87.00;;;81.10;;
14187;SDS011;7175;51.978;5.330;2024-01-30T02:51:09;84.60;;;78.80;;
14187;SDS011;7175;51.978;5.330;2024-01-30T02:53:38;85.73;;;79.93;;
14187;SDS011;7175;51.978;5.330;2024-01-30T02:56:07;86.60;;;80.80;;
14187;SDS011;7175;51.978;5.330;2024-01-30T02:58:36;90.10;;;84.20;;
14187;SDS011;7175;51.978;5.330;2024-01-30T03:01:04;85.83;;;80.13;;
14187;SDS011;7175;51.978;5.330;2024-01-30T03:03:33;86.50;;;80.70;;
14187;SDS011;7175;51.978;5.330;2024-01-30T03:06:02;85.43;;;79.67;;
14187;SDS011;7175;51.978;5.330;2024-01-30T03:08:30;90.60;;;84.50;;
14187;SDS011;7175;51.978;5.330;2024-01-30T03:10:58;88.23;;;82.30;;
14187;SDS011;7175;51.978;5.330;2024-01-30T03:13:28;86.20;;;80.30;;
14187;SDS011;7175;51.978;5.330;2024-01-30T03:15:56;86.47;;;80.50;;
14187;SDS011;7175;51.978;5.330;2024-01-30T03:18:24;86.47;;;80.47;;
14187;SDS011;7175;51.978;5.330;2024-01-30T03:20:52;84.87;;;79.07;;
14187;SDS011;7175;51.978;5.330;2024-01-30T03:23:19;82.80;;;77.00;;
14187;SDS011;7175;51.978;5.330;2024-01-30T03:25:47;83.17;;;77.47;;
14187;SDS011;7175;51.978;5.330;2024-01-30T03:28:15;87.47;;;81.60;;
14187;SDS011;7175;51.978;5.330;2024-01-30T03:30:44;83.30;;;77.60;;
14187;SDS011;7175;51.978;5.330;2024-01-30T03:33:12;81.60;;;76.00;;
14187;SDS011;7175;51.978;5.330;2024-01-30T03:35:41;79.13;;;73.63;;
14187;SDS011;7175;51.978;5.330;2024-01-30T03:38:09;80.17;;;74.67;;
14187;SDS011;7175;51.978;5.330;2024-01-30T03:40:37;78.13;;;72.73;;
14187;SDS011;7175;51.978;5.330;2024-01-30T03:43:05;78.10;;;72.70;;
14187;SDS011;7175;51.978;5.330;2024-01-30T03:45:33;75.23;;;70.00;;
14187;SDS011;7175;51.978;5.330;2024-01-30T03:48:02;74.37;;;69.17;;
14187;SDS011;7175;51.978;5.330;2024-01-30T03:50:30;72.90;;;67.80;;
14187;SDS011;7175;51.978;5.330;2024-01-30T03:52:58;69.60;;;64.70;;
14187;SDS011;7175;51.978;5.330;2024-01-30T03:55:26;72.60;;;67.60;;
14187;SDS011;7175;51.978;5.330;2024-01-30T03:57:54;69.80;;;64.90;;
14187;SDS011;7175;51.978;5.330;2024-01-30T04:00:22;69.60;;;64.70;;
14187;SDS011;7175;51.978;5.330;2024-01-30T04:02:50;68.20;;;63.40;;
14187;SDS011;7175;51.978;5.330;2024-01-30T04:05:19;65.50;;;60.80;;
14187;SDS011;7175;51.978;5.330;2024-01-30T04:07:47;62.60;;;58.10;;
14187;SDS011;7175;51.978;5.330;2024-01-30T04:10:15;63.90;;;59.30;;
14187;SDS011;7175;51.978;5.330;2024-01-30T04:12:43;60.13;;;55.83;;
14187;SDS011;7175;51.978;5.330;2024-01-30T04:15:11;60.43;;;56.07;;
14187;SDS011;7175;51.978;5.330;2024-01-30T04:17:40;59.10;;;54.80;;
14187;SDS011;7175;51.978;5.330;2024-01-30T04:20:12;58.80;;;54.50;;
14187;SDS011;7175;51.978;5.330;2024-01-30T04:22:44;59.10;;;54.80;;
14187;SDS011;7175;51.978;5.330;2024-01-30T04:25:12;60.30;;;55.90;;
14187;SDS011;7175;51.978;5.330;2024-01-30T04:27:41;62.00;;;57.50;;
14187;SDS011;7175;51.978;5.330;2024-01-30T04:30:09;64.60;;;60.00;;
14187;SDS011;7175;51.978;5.330;2024-01-30T04:32:37;62.13;;;57.63;;
14187;SDS011;7175;51.978;5.330;2024-01-30T04:35:06;63.00;;;58.50;;
14187;SDS011;7175;51.978;5.330;2024-01-30T04:37:37;60.23;;;55.83;;
14187;SDS011;7175;51.978;5.330;2024-01-30T04:40:07;61.33;;;56.87;;
14187;SDS011;7175;51.978;5.330;2024-01-30T04:42:36;62.40;;;57.90;;
14187;SDS011;7175;51.978;5.330;2024-01-30T04:45:05;60.70;;;56.30;;
14187;SDS011;7175;51.978;5.330;2024-01-30T04:47:33;61.87;;;57.47;;
14187;SDS011;7175;51.978;5.330;2024-01-30T04:50:01;61.47;;;57.07;;
14187;SDS011;7175;51.978;5.330;2024-01-30T04:52:31;60.27;;;55.97;;
14187;SDS011;7175;51.978;5.330;2024-01-30T04:54:59;58.53;;;54.23;;
14187;SDS011;7175;51.978;5.330;2024-01-30T04:57:28;58.53;;;54.20;;
14187;SDS011;7175;51.978;5.330;2024-01-30T04:59:57;59.00;;;54.70;;
14187;SDS011;7175;51.978;5.330;2024-01-30T05:02:25;59.80;;;55.50;;
14187;SDS011;7175;51.978;5.330;2024-01-30T05:04:53;58.80;;;54.47;;
14187;SDS011;7175;51.978;5.330;2024-01-30T05:07:21;55.87;;;51.67;;
14187;SDS011;7175;51.978;5.330;2024-01-30T05:09:49;57.80;;;53.50;;
14187;SDS011;7175;51.978;5.330;2024-01-30T05:12:18;57.13;;;52.90;;
14187;SDS011;7175;51.978;5.330;2024-01-30T05:14:48;59.40;;;55.10;;
14187;SDS011;7175;51.978;5.330;2024-01-30T05:17:16;57.70;;;53.40;;
14187;SDS011;7175;51.978;5.330;2024-01-30T05:19:44;59.60;;;55.20;;
14187;SDS011;7175;51.978;5.330;2024-01-30T05:22:12;55.83;;;51.63;;
14187;SDS011;7175;51.978;5.330;2024-01-30T05:24:42;57.27;;;53.07;;
14187;SDS011;7175;51.978;5.330;2024-01-30T05:27:10;53.73;;;49.63;;
14187;SDS011;7175;51.978;5.330;2024-01-30T05:29:39;52.90;;;48.90;;
14187;SDS011;7175;51.978;5.330;2024-01-30T05:32:09;53.27;;;49.27;;
14187;SDS011;7175;51.978;5.330;2024-01-30T05:34:37;53.83;;;49.73;;
14187;SDS011;7175;51.978;5.330;2024-01-30T05:37:05;53.70;;;49.60;;
14187;SDS011;7175;51.978;5.330;2024-01-30T05:39:33;53.50;;;49.50;;
14187;SDS011;7175;51.978;5.330;2024-01-30T05:42:02;52.80;;;48.70;;
14187;SDS011;7175;51.978;5.330;2024-01-30T05:44:30;50.87;;;46.90;;
14187;SDS011;7175;51.978;5.330;2024-01-30T05:46:58;51.20;;;47.30;;
14187;SDS011;7175;51.978;5.330;2024-01-30T05:49:27;51.33;;;47.33;;
14187;SDS011;7175;51.978;5.330;2024-01-30T05:51:55;51.60;;;47.57;;
14187;SDS011;7175;51.978;5.330;2024-01-30T05:54:24;52.40;;;48.30;;
14187;SDS011;7175;51.978;5.330;2024-01-30T05:56:52;49.93;;;45.93;;
14187;SDS011;7175;51.978;5.330;2024-01-30T05:59:19;52.47;;;48.37;;
14187;SDS011;7175;51.978;5.330;2024-01-30T06:01:48;52.73;;;48.63;;
14187;SDS011;7175;51.978;5.330;2024-01-30T06:04:16;50.43;;;46.43;;
14187;SDS011;7175;51.978;5.330;2024-01-30T06:06:46;47.73;;;43.83;;
14187;SDS011;7175;51.978;5.330;2024-01-30T06:09:14;47.67;;;43.77;;
14187;SDS011;7175;51.978;5.330;2024-01-30T06:11:43;47.43;;;43.53;;
14187;SDS011;7175;51.978;5.330;2024-01-30T06:14:11;49.23;;;45.23;;
14187;SDS011;7175;51.978;5.330;2024-01-30T06:16:41;46.30;;;42.40;;
14187;SDS011;7175;51.978;5.330;2024-01-30T06:19:10;48.47;;;44.47;;
14187;SDS011;7175;51.978;5.330;2024-01-30T06:21:39;51.33;;;47.13;;
14187;SDS011;7175;51.978;5.330;2024-01-30T06:24:10;48.17;;;44.17;;
14187;SDS011;7175;51.978;5.330;2024-01-30T06:26:39;46.00;;;42.10;;
14187;SDS011;7175;51.978;5.330;2024-01-30T06:29:09;44.33;;;40.53;;
14187;SDS011;7175;51.978;5.330;2024-01-30T06:31:39;46.77;;;42.87;;
14187;SDS011;7175;51.978;5.330;2024-01-30T06:34:09;42.83;;;39.13;;
14187;SDS011;7175;51.978;5.330;2024-01-30T06:36:39;46.50;;;42.60;;
14187;SDS011;7175;51.978;5.330;2024-01-30T06:39:10;49.00;;;44.90;;
14187;SDS011;7175;51.978;5.330;2024-01-30T06:41:39;48.60;;;44.50;;
14187;SDS011;7175;51.978;5.330;2024-01-30T06:44:08;50.10;;;46.00;;
14187;SDS011;7175;51.978;5.330;2024-01-30T06:46:37;48.30;;;44.20;;
14187;SDS011;7175;51.978;5.330;2024-01-30T06:49:06;49.37;;;45.27;;
14187;SDS011;7175;51.978;5.330;2024-01-30T06:51:35;50.17;;;45.97;;
14187;SDS011;7175;51.978;5.330;2024-01-30T06:54:04;49.27;;;45.17;;
14187;SDS011;7175;51.978;5.330;2024-01-30T06:56:35;48.27;;;44.17;;
14187;SDS011;7175;51.978;5.330;2024-01-30T06:59:04;49.80;;;45.60;;
14187;SDS011;7175;51.978;5.330;2024-01-30T07:01:33;51.90;;;47.60;;
14187;SDS011;7175;51.978;5.330;2024-01-30T07:04:02;51.37;;;47.10;;
14187;SDS011;7175;51.978;5.330;2024-01-30T07:06:32;48.93;;;44.77;;
14187;SDS011;7175;51.978;5.330;2024-01-30T07:09:00;50.50;;;46.30;;
14187;SDS011;7175;51.978;5.330;2024-01-30T07:11:28;50.50;;;46.30;;
14187;SDS011;7175;51.978;5.330;2024-01-30T07:13:57;48.60;;;44.40;;
14187;SDS011;7175;51.978;5.330;2024-01-30T07:16:25;49.80;;;45.40;;
14187;SDS011;7175;51.978;5.330;2024-01-30T07:18:53;51.77;;;47.37;;
14187;SDS011;7175;51.978;5.330;2024-01-30T07:21:22;51.30;;;46.90;;
14187;SDS011;7175;51.978;5.330;2024-01-30T07:23:54;49.77;;;45.47;;
14187;SDS011;7175;51.978;5.330;2024-01-30T07:26:22;55.40;;;50.83;;
14187;SDS011;7175;51.978;5.330;2024-01-30T07:28:50;54.10;;;49.60;;
14187;SDS011;7175;51.978;5.330;2024-01-30T07:31:20;50.83;;;46.53;;
14187;SDS011;7175;51.978;5.330;2024-01-30T07:33:49;52.93;;;48.47;;
14187;SDS011;7175;51.978;5.330;2024-01-30T07:36:17;61.10;;;56.10;;
14187;SDS011;7175;51.978;5.330;2024-01-30T07:38:46;68.07;;;62.67;;
14187;SDS011;7175;51.978;5.330;2024-01-30T07:41:14;65.80;;;60.50;;
14187;SDS011;7175;51.978;5.330;2024-01-30T07:43:42;65.70;;;60.40;;
14187;SDS011;7175;51.978;5.330;2024-01-30T07:46:11;65.33;;;59.97;;
14187;SDS011;7175;51.978;5.330;2024-01-30T07:48:40;66.67;;;61.17;;
14187;SDS011;7175;51.978;5.330;2024-01-30T07:51:08;62.17;;;56.93;;
14187;SDS011;7175;51.978;5.330;2024-01-30T07:53:36;65.47;;;60.00;;
14187;SDS011;7175;51.978;5.330;2024-01-30T07:56:05;62.53;;;57.23;;
14187;SDS011;7175;51.978;5.330;2024-01-30T07:58:33;62.63;;;57.33;;
14187;SDS011;7175;51.978;5.330;2024-01-30T08:01:01;62.13;;;56.87;;
14187;SDS011;7175;51.978;5.330;2024-01-30T08:03:30;62.97;;;57.67;;
14187;SDS011;7175;51.978;5.330;2024-01-30T08:05:59;59.30;;;54.20;;
14187;SDS011;7175;51.978;5.330;2024-01-30T08:08:27;58.97;;;53.97;;
14187;SDS011;7175;51.978;5.330;2024-01-30T08:10:55;60.00;;;54.90;;
14187;SDS011;7175;51.978;5.330;2024-01-30T08:13:23;60.53;;;55.43;;
14187;SDS011;7175;51.978;5.330;2024-01-30T08:15:51;60.57;;;55.47;;
14187;SDS011;7175;51.978;5.330;2024-01-30T08:18:19;59.07;;;54.07;;
14187;SDS011;7175;51.978;5.330;2024-01-30T08:20:47;61.60;;;56.40;;
14187;SDS011;7175;51.978;5.330;2024-01-30T08:23:17;63.93;;;58.63;;
14187;SDS011;7175;51.978;5.330;2024-01-30T08:25:45;65.90;;;60.50;;
14187;SDS011;7175;51.978;5.330;2024-01-30T08:28:13;65.70;;;60.30;;
14187;SDS011;7175;51.978;5.330;2024-01-30T08:30:43;63.07;;;57.87;;
14187;SDS011;7175;51.978;5.330;2024-01-30T08:33:11;63.20;;;58.00;;
14187;SDS011;7175;51.978;5.330;2024-01-30T08:35:39;58.07;;;53.23;;
14187;SDS011;7175;51.978;5.330;2024-01-30T08:38:07;54.53;;;49.90;;
14187;SDS011;7175;51.978;5.330;2024-01-30T08:40:37;51.40;;;47.00;;
14187;SDS011;7175;51.978;5.330;2024-01-30T08:43:05;47.97;;;43.77;;
14187;SDS011;7175;51.978;5.330;2024-01-30T08:45:34;47.80;;;43.67;;
14187;SDS011;7175;51.978;5.330;2024-01-30T08:48:02;46.03;;;42.03;;
14187;SDS011;7175;51.978;5.330;2024-01-30T08:50:31;44.23;;;40.33;;
14187;SDS011;7175;51.978;5.330;2024-01-30T08:52:59;43.63;;;39.83;;
14187;SDS011;7175;51.978;5.330;2024-01-30T08:55:27;42.77;;;38.97;;
14187;SDS011;7175;51.978;5.330;2024-01-30T08:57:56;44.40;;;40.60;;
14187;SDS011;7175;51.978;5.330;2024-01-30T09:00:25;42.30;;;38.70;;
14187;SDS011;7175;51.978;5.330;2024-01-30T09:02:53;39.80;;;36.30;;
14187;SDS011;7175;51.978;5.330;2024-01-30T09:05:21;35.00;;;31.80;;
14187;SDS011;7175;51.978;5.330;2024-01-30T09:07:49;35.00;;;31.80;;
14187;SDS011;7175;51.978;5.330;2024-01-30T09:10:17;32.00;;;29.00;;
14187;SDS011;7175;51.978;5.330;2024-01-30T09:12:46;33.03;;;29.93;;
14187;SDS011;7175;51.978;5.330;2024-01-30T09:15:17;33.43;;;30.33;;
14187;SDS011;7175;51.978;5.330;2024-01-30T09:17:46;32.60;;;29.50;;
14187;SDS011;7175;51.978;5.330;2024-01-30T09:20:14;30.80;;;27.90;;
14187;SDS011;7175;51.978;5.330;2024-01-30T09:22:42;29.17;;;26.37;;
14187;SDS011;7175;51.978;5.330;2024-01-30T09:25:10;28.23;;;25.53;;
14187;SDS011;7175;51.978;5.330;2024-01-30T09:27:38;26.57;;;23.97;;
14187;SDS011;7175;51.978;5.330;2024-01-30T09:30:07;26.50;;;23.90;;
14187;SDS011;7175;51.978;5.330;2024-01-30T09:32:39;25.43;;;22.93;;
14187;SDS011;7175;51.978;5.330;2024-01-30T09:35:07;25.17;;;22.77;;
14187;SDS011;7175;51.978;5.330;2024-01-30T09:37:36;25.80;;;23.40;;
14187;SDS011;7175;51.978;5.330;2024-01-30T09:40:04;24.97;;;22.57;;
14187;SDS011;7175;51.978;5.330;2024-01-30T09:42:34;24.70;;;22.30;;
14187;SDS011;7175;51.978;5.330;2024-01-30T09:45:03;24.33;;;21.93;;
14187;SDS011;7175;51.978;5.330;2024-01-30T09:47:32;25.13;;;22.73;;
14187;SDS011;7175;51.978;5.330;2024-01-30T09:50:05;24.50;;;22.10;;
14187;SDS011;7175;51.978;5.330;2024-01-30T09:52:34;24.37;;;21.97;;
14187;SDS011;7175;51.978;5.330;2024-01-30T09:55:03;23.90;;;21.50;;
14187;SDS011;7175;51.978;5.330;2024-01-30T09:57:32;24.23;;;21.83;;
14187;SDS011;7175;51.978;5.330;2024-01-30T10:00:00;24.13;;;21.73;;
14187;SDS011;7175;51.978;5.330;2024-01-30T10:02:29;25.10;;;22.70;;
14187;SDS011;7175;51.978;5.330;2024-01-30T10:04:58;24.47;;;22.07;;
14187;SDS011;7175;51.978;5.330;2024-01-30T10:07:28;24.93;;;22.53;;
14187;SDS011;7175;51.978;5.330;2024-01-30T10:09:57;25.03;;;22.63;;
14187;SDS011;7175;51.978;5.330;2024-01-30T10:12:25;25.93;;;23.43;;
14187;SDS011;7175;51.978;5.330;2024-01-30T10:14:55;26.57;;;24.03;;
14187;SDS011;7175;51.978;5.330;2024-01-30T10:17:24;28.63;;;26.00;;
14187;SDS011;7175;51.978;5.330;2024-01-30T10:19:59;29.30;;;26.70;;
14187;SDS011;7175;51.978;5.330;2024-01-30T10:22:29;28.97;;;26.37;;
14187;SDS011;7175;51.978;5.330;2024-01-30T10:24:58;28.43;;;25.83;;
14187;SDS011;7175;51.978;5.330;2024-01-30T10:27:31;26.40;;;24.00;;
14187;SDS011;7175;51.978;5.330;2024-01-30T10:29:59;26.57;;;24.17;;
14187;SDS011;7175;51.978;5.330;2024-01-30T10:32:27;25.20;;;22.90;;
14187;SDS011;7175;51.978;5.330;2024-01-30T10:34:55;25.63;;;23.33;;
14187;SDS011;7175;51.978;5.330;2024-01-30T10:37:25;26.57;;;24.17;;
14187;SDS011;7175;51.978;5.330;2024-01-30T10:39:55;25.80;;;23.47;;
14187;SDS011;7175;51.978;5.330;2024-01-30T10:42:28;24.73;;;22.53;;
14187;SDS011;7175;51.978;5.330;2024-01-30T10:45:00;26.13;;;23.73;;
14187;SDS011;7175;51.978;5.330;2024-01-30T10:47:35;23.50;;;21.30;;
14187;SDS011;7175;51.978;5.330;2024-01-30T10:50:04;24.00;;;21.80;;
14187;SDS011;7175;51.978;5.330;2024-01-30T10:52:34;23.57;;;21.37;;
14187;SDS011;7175;51.978;5.330;2024-01-30T10:55:04;24.03;;;21.83;;
14187;SDS011;7175;51.978;5.330;2024-01-30T10:57:33;22.40;;;20.30;;
14187;SDS011;7175;51.978;5.330;2024-01-30T11:00:03;24.20;;;21.90;;
14187;SDS011;7175;51.978;5.330;2024-01-30T11:02:36;24.23;;;21.93;;
14187;SDS011;7175;51.978;5.330;2024-01-30T11:05:07;22.87;;;20.67;;
14187;SDS011;7175;51.978;5.330;2024-01-30T11:07:36;24.13;;;21.93;;
14187;SDS011;7175;51.978;5.330;2024-01-30T11:10:07;24.33;;;22.13;;
14187;SDS011;7175;51.978;5.330;2024-01-30T11:12:40;22.27;;;20.17;;
14187;SDS011;7175;51.978;5.330;2024-01-30T11:15:11;22.20;;;20.10;;
14187;SDS011;7175;51.978;5.330;2024-01-30T11:17:44;22.07;;;20.07;;
14187;SDS011;7175;51.978;5.330;2024-01-30T11:20:14;21.33;;;19.33;;
14187;SDS011;7175;51.978;5.330;2024-01-30T11:22:44;21.53;;;19.53;;
14187;SDS011;7175;51.978;5.330;2024-01-30T11:25:15;21.23;;;19.23;;
14187;SDS011;7175;51.978;5.330;2024-01-30T11:27:44;21.00;;;19.00;;
14187;SDS011;7175;51.978;5.330;2024-01-30T11:30:20;21.50;;;19.50;;
14187;SDS011;7175;51.978;5.330;2024-01-30T11:32:59;22.43;;;20.33;;
14187;SDS011;7175;51.978;5.330;2024-01-30T11:35:29;21.90;;;19.90;;
14187;SDS011;7175;51.978;5.330;2024-01-30T11:37:58;22.50;;;20.40;;
14187;SDS011;7175;51.978;5.330;2024-01-30T11:40:28;22.63;;;20.53;;
14187;SDS011;7175;51.978;5.330;2024-01-30T11:42:58;22.67;;;20.57;;
14187;SDS011;7175;51.978;5.330;2024-01-30T11:45:27;22.80;;;20.70;;
14187;SDS011;7175;51.978;5.330;2024-01-30T11:47:55;22.63;;;20.50;;
14187;SDS011;7175;51.978;5.330;2024-01-30T11:50:26;21.40;;;19.37;;
14187;SDS011;7175;51.978;5.330;2024-01-30T11:52:55;22.20;;;20.10;;
14187;SDS011;7175;51.978;5.330;2024-01-30T11:55:23;22.33;;;20.23;;
14187;SDS011;7175;51.978;5.330;2024-01-30T11:57:56;21.80;;;19.80;;
14187;SDS011;7175;51.978;5.330;2024-01-30T12:00:24;21.37;;;19.37;;
14187;SDS011;7175;51.978;5.330;2024-01-30T12:02:53;22.00;;;19.90;;
14187;SDS011;7175;51.978;5.330;2024-01-30T12:05:23;21.90;;;19.90;;
14187;SDS011;7175;51.978;5.330;2024-01-30T12:07:55;23.40;;;21.20;;
14187;SDS011;7175;51.978;5.330;2024-01-30T12:10:26;22.13;;;20.13;;
14187;SDS011;7175;51.978;5.330;2024-01-30T12:12:56;22.70;;;20.70;;
14187;SDS011;7175;51.978;5.330;2024-01-30T12:15:25;21.20;;;19.30;;
14187;SDS011;7175;51.978;5.330;2024-01-30T12:18:03;22.03;;;20.03;;
14187;SDS011;7175;51.978;5.330;2024-01-30T12:20:32;22.60;;;20.60;;
14187;SDS011;7175;51.978;5.330;2024-01-30T12:23:01;21.80;;;19.70;;
14187;SDS011;7175;51.978;5.330;2024-01-30T12:25:29;20.80;;;18.80;;
14187;SDS011;7175;51.978;5.330;2024-01-30T12:27:59;20.47;;;18.47;;
14187;SDS011;7175;51.978;5.330;2024-01-30T12:30:27;20.90;;;18.90;;
14187;SDS011;7175;51.978;5.330;2024-01-30T12:32:56;21.23;;;19.23;;
14187;SDS011;7175;51.978;5.330;2024-01-30T12:35:24;21.37;;;19.37;;
14187;SDS011;7175;51.978;5.330;2024-01-30T12:37:56;21.73;;;19.63;;
14187;SDS011;7175;51.978;5.330;2024-01-30T12:40:24;21.73;;;19.63;;
14187;SDS011;7175;51.978;5.330;2024-01-30T12:42:52;21.63;;;19.53;;
14187;SDS011;7175;51.978;5.330;2024-01-30T12:45:22;21.77;;;19.67;;
14187;SDS011;7175;51.978;5.330;2024-01-30T12:47:50;21.90;;;19.80;;
14187;SDS011;7175;51.978;5.330;2024-01-30T12:50:19;22.10;;;20.00;;
14187;SDS011;7175;51.978;5.330;2024-01-30T12:52:47;22.20;;;20.10;;
14187;SDS011;7175;51.978;5.330;2024-01-30T12:55:16;22.53;;;20.37;;
14187;SDS011;7175;51.978;5.330;2024-01-30T12:57:44;22.80;;;20.60;;
14187;SDS011;7175;51.978;5.330;2024-01-30T13:00:13;22.47;;;20.27;;
14187;SDS011;7175;51.978;5.330;2024-01-30T13:02:44;22.73;;;20.53;;
14187;SDS011;7175;51.978;5.330;2024-01-30T13:05:13;22.43;;;20.30;;
14187;SDS011;7175;51.978;5.330;2024-01-30T13:07:41;22.77;;;20.57;;
14187;SDS011;7175;51.978;5.330;2024-01-30T13:10:09;22.97;;;20.77;;
14187;SDS011;7175;51.978;5.330;2024-01-30T13:12:37;22.10;;;20.00;;
14187;SDS011;7175;51.978;5.330;2024-01-30T13:15:06;21.90;;;19.80;;
14187;SDS011;7175;51.978;5.330;2024-01-30T13:17:35;22.43;;;20.33;;
14187;SDS011;7175;51.978;5.330;2024-01-30T13:20:08;23.73;;;21.53;;
14187;SDS011;7175;51.978;5.330;2024-01-30T13:22:38;23.57;;;21.37;;
14187;SDS011;7175;51.978;5.330;2024-01-30T13:25:06;23.83;;;21.63;;
14187;SDS011;7175;51.978;5.330;2024-01-30T13:27:35;24.07;;;21.87;;
14187;SDS011;7175;51.978;5.330;2024-01-30T13:30:06;22.97;;;20.77;;
14187;SDS011;7175;51.978;5.330;2024-01-30T13:32:36;23.33;;;21.13;;
14187;SDS011;7175;51.978;5.330;2024-01-30T13:35:04;22.93;;;20.80;;
14187;SDS011;7175;51.978;5.330;2024-01-30T13:37:34;22.90;;;20.73;;
14187;SDS011;7175;51.978;5.330;2024-01-30T13:40:02;22.80;;;20.70;;
14187;SDS011;7175;51.978;5.330;2024-01-30T13:42:37;22.40;;;20.30;;
14187;SDS011;7175;51.978;5.330;2024-01-30T13:45:05;22.93;;;20.83;;
14187;SDS011;7175;51.978;5.330;2024-01-30T13:47:36;23.10;;;20.90;;
14187;SDS011;7175;51.978;5.330;2024-01-30T13:50:05;23.40;;;21.20;;
14187;SDS011;7175;51.978;5.330;2024-01-30T13:52:35;23.67;;;21.47;;
14187;SDS011;7175;51.978;5.330;2024-01-30T13:55:10;22.70;;;20.60;;
14187;SDS011;7175;51.978;5.330;2024-01-30T13:57:40;23.53;;;21.33;;
14187;SDS011;7175;51.978;5.330;2024-01-30T14:00:08;23.80;;;21.60;;
14187;SDS011;7175;51.978;5.330;2024-01-30T14:02:37;23.87;;;21.67;;
14187;SDS011;7175;51.978;5.330;2024-01-30T14:05:06;24.90;;;22.60;;
14187;SDS011;7175;51.978;5.330;2024-01-30T14:07:36;24.50;;;22.20;;
14187;SDS011;7175;51.978;5.330;2024-01-30T14:10:07;24.37;;;22.07;;
14187;SDS011;7175;51.978;5.330;2024-01-30T14:12:39;23.97;;;21.77;;
14187;SDS011;7175;51.978;5.330;2024-01-30T14:15:07;24.70;;;22.40;;
14187;SDS011;7175;51.978;5.330;2024-01-30T14:17:52;24.77;;;22.47;;
14187;SDS011;7175;51.978;5.330;2024-01-30T14:20:21;24.87;;;22.57;;
14187;SDS011;7175;51.978;5.330;2024-01-30T14:22:51;24.97;;;22.67;;
14187;SDS011;7175;51.978;5.330;2024-01-30T14:25:19;24.63;;;22.33;;
14187;SDS011;7175;51.978;5.330;2024-01-30T14:27:48;24.53;;;22.23;;
14187;SDS011;7175;51.978;5.330;2024-01-30T14:30:16;24.20;;;21.90;;
14187;SDS011;7175;51.978;5.330;2024-01-30T14:32:44;24.23;;;21.93;;
14187;SDS011;7175;51.978;5.330;2024-01-30T14:35:13;24.30;;;22.00;;
14187;SDS011;7175;51.978;5.330;2024-01-30T14:37:41;24.77;;;22.47;;
14187;SDS011;7175;51.978;5.330;2024-01-30T14:40:11;24.53;;;22.23;;
14187;SDS011;7175;51.978;5.330;2024-01-30T14:42:39;24.40;;;22.10;;